Time;durP1;ratioP1;P1;durP2;ratioP2;P2;SDS_P1;SDS_P2;PMS_P1;PMS_P2;Temp;Humidity;BMP_temperature;BMP_pressure;BME280_temperature;BME280_humidity;BME280_pressure;Samples;Min_cycle;Max_cycle;Signal;HPM_P1;HPM_P2
2022/10/29 00:00:40;;;;;;;;;;;;;;;10.26;61.15;96332.69;5113853;28;969;-57
2022/10/29 00:03:06;;;;;;;;;;;;;;;10.30;60.90;96325.25;5113741;28;969;-57
2022/10/29 00:05:32;;;;;;;;;;;;;;;10.26;61.29;96326.47;5113998;28;992;-58
2022/10/29 00:07:59;;;;;;;;;;;;;;;10.37;60.82;96317.59;5113894;28;1028;-57
2022/10/29 00:10:25;;;;;;;;;;;;;;;10.28;60.87;96321.84;5113835;28;959;-57
2022/10/29 00:12:51;;;;;;;;;;;;;;;10.28;60.95;96317.38;5113628;28;1092;-57
2022/10/29 00:15:17;;;;;;;;;;;;;;;10.15;61.15;96316.72;5116148;28;1988;-57
2022/10/29 00:17:43;;;;;;;;;;;;;;;10.09;61.69;96312.75;5117802;28;1018;-58
2022/10/29 00:20:09;;;;;;;;;;;;;;;10.05;61.25;96311.28;5117928;28;830;-57
2022/10/29 00:22:35;;;;;;;;;;;;;;;10.02;61.49;96316.06;5118047;28;1048;-57
2022/10/29 00:25:01;;;;;;;;;;;;;;;10.00;61.58;96312.66;5116805;28;1025;-57
2022/10/29 00:27:28;;;;;;;;;;;;;;;9.99;61.41;96319.81;5117886;27;1020;-57
2022/10/29 00:29:54;;;;;;;;;;;;;;;9.99;61.72;96313.63;5133304;27;1102;-57
2022/10/29 00:32:21;;;;;;;;;;;;;;;10.05;61.35;96305.09;5117651;28;1061;-58
2022/10/29 00:34:47;;;;;;;;;;;;;;;9.92;61.57;96308.81;5117736;28;2001;-57
2022/10/29 00:37:13;;;;;;;;;;;;;;;9.89;61.82;96308.22;5117546;28;1017;-57
2022/10/29 00:39:39;;;;;;;;;;;;;;;9.82;61.60;96307.88;5117541;28;1303;-58
2022/10/29 00:42:05;;;;;;;;;;;;;;;9.76;62.33;96305.72;5116963;27;1579;-57
2022/10/29 00:44:34;;;;;;;;;;;;;;;9.71;62.07;96303.44;5116332;28;1019;-57
2022/10/29 00:47:12;;;;;;;;;;;;;;;9.68;62.19;96306.38;5117310;28;1031;-58
2022/10/29 00:49:40;;;;;;;;;;;;;;;9.61;62.16;96307.00;5117502;28;1036;-58
2022/10/29 00:52:07;;;;;;;;;;;;;;;9.51;61.95;96297.06;5117192;28;1133;-58
2022/10/29 00:54:34;;;;;;;;;;;;;;;9.45;62.27;96300.25;5117263;28;2004;-57
2022/10/29 00:57:05;;;;;;;;;;;;;;;9.52;61.96;96300.59;5117198;28;1046;-58
2022/10/29 00:59:31;;;;;;;;;;;;;;;9.44;62.55;96295.88;5117180;28;1036;-58
2022/10/29 01:01:57;;;;;;;;;;;;;;;9.39;62.50;96295.44;5117248;28;1031;-58
2022/10/29 01:04:23;;;;;;;;;;;;;;;9.42;62.59;96297.81;5117289;28;969;-58
2022/10/29 01:06:50;;;;;;;;;;;;;;;9.44;62.45;96295.03;5116935;28;1045;-58
2022/10/29 01:09:16;;;;;;;;;;;;;;;9.54;62.16;96293.28;5116986;28;1048;-58
2022/10/29 01:11:48;;;;;;;;;;;;;;;9.39;62.56;96292.75;5115740;28;1019;-58
2022/10/29 01:14:33;;;;;;;;;;;;;;;9.33;62.54;96293.25;5116813;28;1914;-58
2022/10/29 01:17:13;;;;;;;;;;;;;;;9.19;62.60;96287.19;5116942;28;952;-58
2022/10/29 01:19:58;;;;;;;;;;;;;;;9.28;62.52;96287.44;5116785;28;1044;-58
2022/10/29 01:22:24;;;;;;;;;;;;;;;9.33;62.43;96287.91;5116655;28;1025;-58
2022/10/29 01:24:59;;;;;;;;;;;;;;;9.34;62.37;96282.44;5116835;28;972;-57
2022/10/29 01:27:25;;;;;;;;;;;;;;;9.33;62.91;96277.22;5116845;28;1024;-58
2022/10/29 01:30:05;;;;;;;;;;;;;;;9.34;62.65;96281.59;5115215;28;1119;-58
2022/10/29 01:32:57;;;;;;;;;;;;;;;9.19;62.66;96279.19;5116608;28;1108;-58
2022/10/29 01:35:42;;;;;;;;;;;;;;;9.29;62.46;96273.13;5100189;28;1910;-58
2022/10/29 01:38:13;;;;;;;;;;;;;;;9.28;62.31;96274.09;5116630;28;1055;-58
2022/10/29 01:40:54;;;;;;;;;;;;;;;9.29;62.25;96270.44;5115117;28;1314;-58
2022/10/29 01:43:24;;;;;;;;;;;;;;;9.22;62.42;96267.44;5116394;28;976;-58
2022/10/29 01:45:53;;;;;;;;;;;;;;;9.11;62.90;96267.47;5116263;28;1104;-57
2022/10/29 01:48:23;;;;;;;;;;;;;;;9.01;63.18;96267.38;5116391;28;1056;-58
2022/10/29 01:50:53;;;;;;;;;;;;;;;8.83;63.25;96272.34;5114936;28;1212;-58
2022/10/29 01:53:19;;;;;;;;;;;;;;;8.84;63.41;96266.06;5116185;28;1031;-58
2022/10/29 01:55:45;;;;;;;;;;;;;;;8.91;63.17;96269.06;5115923;28;1914;-58
2022/10/29 01:58:12;;;;;;;;;;;;;;;9.03;62.80;96267.22;5116030;28;1056;-58
2022/10/29 02:00:56;;;;;;;;;;;;;;;8.96;62.66;96269.56;5116129;28;1048;-58
2022/10/29 02:03:34;;;;;;;;;;;;;;;9.04;62.65;96264.44;5116119;28;1032;-58
2022/10/29 02:06:04;;;;;;;;;;;;;;;8.99;62.26;96264.81;5115945;28;969;-58
2022/10/29 02:08:30;;;;;;;;;;;;;;;8.90;62.61;96260.22;5115785;28;1039;-58
2022/10/29 02:11:17;;;;;;;;;;;;;;;8.83;62.89;96258.19;5115955;28;973;-58
2022/10/29 02:13:48;;;;;;;;;;;;;;;8.94;63.21;96260.84;5115596;28;1987;-58
2022/10/29 02:16:15;;;;;;;;;;;;;;;8.77;63.27;96255.03;5115866;28;1039;-58
2022/10/29 02:18:42;;;;;;;;;;;;;;;8.76;64.39;96256.00;5115538;28;1037;-58
2022/10/29 02:21:08;;;;;;;;;;;;;;;9.04;63.09;96258.25;5115512;28;1001;-58
2022/10/29 02:23:34;;;;;;;;;;;;;;;8.92;63.21;96252.94;5114593;28;1004;-58
2022/10/29 02:26:00;;;;;;;;;;;;;;;9.04;62.87;96252.94;5115552;28;1019;-58
2022/10/29 02:28:26;;;;;;;;;;;;;;;8.82;63.78;96249.34;5115556;28;1031;-58
2022/10/29 02:30:52;;;;;;;;;;;;;;;8.86;63.99;96249.91;5115094;28;1118;-58
2022/10/29 02:33:20;;;;;;;;;;;;;;;8.85;63.89;96251.75;5115352;28;1096;-58
2022/10/29 02:35:46;;;;;;;;;;;;;;;8.90;64.13;96241.56;5115569;28;1905;-61
2022/10/29 02:38:12;;;;;;;;;;;;;;;8.90;63.82;96248.72;5113779;28;1013;-60
2022/10/29 02:40:38;;;;;;;;;;;;;;;8.87;63.82;96249.81;5115024;28;1246;-60
2022/10/29 02:43:04;;;;;;;;;;;;;;;8.83;64.12;96234.19;5114960;28;1213;-60
2022/10/29 02:45:30;;;;;;;;;;;;;;;8.79;64.01;96237.09;5115065;28;987;-60
2022/10/29 02:47:56;;;;;;;;;;;;;;;8.87;62.84;96244.47;5113847;28;1202;-60
2022/10/29 02:50:22;;;;;;;;;;;;;;;8.68;63.11;96242.44;5114862;28;1024;-60
2022/10/29 02:52:48;;;;;;;;;;;;;;;8.56;63.32;96244.25;5113649;28;980;-60
2022/10/29 02:55:14;;;;;;;;;;;;;;;8.58;63.39;96249.47;5113796;28;1913;-60
2022/10/29 02:57:43;;;;;;;;;;;;;;;8.65;63.01;96245.34;5115330;28;1024;-60
2022/10/29 03:00:10;;;;;;;;;;;;;;;8.66;63.26;96247.03;5115083;28;1024;-60
2022/10/29 03:02:36;;;;;;;;;;;;;;;8.79;62.46;96245.09;5114677;27;1218;-60
2022/10/29 03:05:02;;;;;;;;;;;;;;;8.78;62.65;96256.75;5114596;28;1060;-60
2022/10/29 03:07:28;;;;;;;;;;;;;;;8.74;63.37;96246.41;5114532;28;1045;-60
2022/10/29 03:09:54;;;;;;;;;;;;;;;8.83;63.02;96250.19;5114592;28;1045;-60
2022/10/29 03:12:20;;;;;;;;;;;;;;;8.74;62.33;96247.25;5113546;28;1122;-60
2022/10/29 03:14:46;;;;;;;;;;;;;;;8.70;62.98;96240.47;5114603;28;1906;-60
2022/10/29 03:17:12;;;;;;;;;;;;;;;8.66;62.41;96249.69;5114494;28;972;-60
2022/10/29 03:19:38;;;;;;;;;;;;;;;8.45;63.57;96246.94;5113245;28;965;-60
2022/10/29 03:22:04;;;;;;;;;;;;;;;8.31;63.90;96248.00;5114613;28;1027;-60
2022/10/29 03:24:30;;;;;;;;;;;;;;;8.31;63.78;96241.78;5114544;28;981;-60
2022/10/29 03:26:56;;;;;;;;;;;;;;;8.34;63.82;96246.88;5113102;28;1049;-60
2022/10/29 03:29:22;;;;;;;;;;;;;;;8.29;64.37;96249.94;5114363;28;977;-60
2022/10/29 03:31:49;;;;;;;;;;;;;;;8.25;64.84;96245.78;5113640;28;1241;-60
2022/10/29 03:34:15;;;;;;;;;;;;;;;8.26;64.07;96252.81;5114000;28;1905;-59
2022/10/29 03:36:41;;;;;;;;;;;;;;;8.28;63.90;96255.38;5114435;28;949;-60
2022/10/29 03:39:07;;;;;;;;;;;;;;;8.20;63.94;96254.16;5112983;28;1365;-59
2022/10/29 03:41:33;;;;;;;;;;;;;;;8.31;64.10;96257.78;5114074;28;1092;-60
2022/10/29 03:43:59;;;;;;;;;;;;;;;8.14;64.40;96256.47;5113991;28;1002;-60
2022/10/29 03:46:25;;;;;;;;;;;;;;;8.23;63.73;96250.38;5114112;28;1020;-60
2022/10/29 03:48:51;;;;;;;;;;;;;;;8.25;63.73;96264.44;5113111;28;1096;-60
2022/10/29 03:51:17;;;;;;;;;;;;;;;8.11;64.11;96260.19;5113967;28;1200;-59
2022/10/29 03:53:43;;;;;;;;;;;;;;;8.25;63.59;96267.09;5114032;28;2028;-60
2022/10/29 03:56:09;;;;;;;;;;;;;;;8.10;63.61;96257.63;5113831;28;1033;-60
2022/10/29 03:58:36;;;;;;;;;;;;;;;8.08;63.60;96263.09;5112782;28;989;-60
2022/10/29 04:01:03;;;;;;;;;;;;;;;7.99;64.62;96259.31;5113780;28;1052;-60
2022/10/29 04:03:30;;;;;;;;;;;;;;;8.01;64.30;96265.38;5113770;28;1057;-60
2022/10/29 04:05:57;;;;;;;;;;;;;;;8.16;63.21;96257.19;5113946;28;976;-60
2022/10/29 04:08:24;;;;;;;;;;;;;;;8.10;63.46;96260.31;5113793;28;1065;-60
2022/10/29 04:10:51;;;;;;;;;;;;;;;8.07;64.10;96252.56;5113742;28;1081;-59
2022/10/29 04:13:17;;;;;;;;;;;;;;;8.18;63.51;96252.59;5113841;28;965;-60
2022/10/29 04:15:44;;;;;;;;;;;;;;;8.11;63.89;96257.53;5113642;28;1910;-60
2022/10/29 04:18:10;;;;;;;;;;;;;;;8.06;64.30;96258.84;5112353;28;1036;-60
2022/10/29 04:20:38;;;;;;;;;;;;;;;7.98;65.53;96262.94;5113895;28;1021;-59
2022/10/29 04:23:04;;;;;;;;;;;;;;;8.07;64.62;96260.56;5113971;28;1102;-59
2022/10/29 04:25:30;;;;;;;;;;;;;;;7.94;64.58;96261.50;5113731;28;1068;-59
2022/10/29 04:27:56;;;;;;;;;;;;;;;8.06;64.15;96264.16;5113462;28;1041;-60
2022/10/29 04:30:22;;;;;;;;;;;;;;;7.99;64.74;96259.31;5113398;28;1099;-60
2022/10/29 04:32:49;;;;;;;;;;;;;;;8.25;63.11;96263.59;5113532;28;1038;-60
2022/10/29 04:35:15;;;;;;;;;;;;;;;8.01;63.46;96265.38;5113606;28;1914;-59
2022/10/29 04:37:41;;;;;;;;;;;;;;;7.85;63.75;96261.34;5113514;28;1041;-59
2022/10/29 04:40:07;;;;;;;;;;;;;;;7.92;63.44;96274.06;5113440;28;1235;-59
2022/10/29 04:42:37;;;;;;;;;;;;;;;7.89;63.94;96269.00;5113216;28;1179;-60
2022/10/29 04:45:04;;;;;;;;;;;;;;;7.81;64.07;96266.06;5113454;28;1031;-59
2022/10/29 04:47:30;;;;;;;;;;;;;;;7.81;64.78;96269.56;5112172;28;1047;-59
2022/10/29 04:49:56;;;;;;;;;;;;;;;7.80;64.72;96265.22;5113538;28;1002;-60
2022/10/29 04:52:22;;;;;;;;;;;;;;;8.03;63.75;96270.59;5113242;28;1188;-59
2022/10/29 04:54:49;;;;;;;;;;;;;;;8.01;64.19;96272.53;5113403;28;1996;-60
2022/10/29 04:57:15;;;;;;;;;;;;;;;8.05;63.95;96273.16;5113168;28;1116;-58
2022/10/29 04:59:41;;;;;;;;;;;;;;;7.95;64.64;96268.53;5113994;28;1112;-58
2022/10/29 05:02:07;;;;;;;;;;;;;;;8.12;63.46;96266.34;5116997;28;1044;-58
2022/10/29 05:04:33;;;;;;;;;;;;;;;8.08;63.37;96272.88;5117390;28;1015;-59
2022/10/29 05:06:59;;;;;;;;;;;;;;;7.87;64.29;96265.56;5117146;28;1055;-59
2022/10/29 05:09:25;;;;;;;;;;;;;;;7.86;64.75;96274.56;5117169;28;1100;-59
2022/10/29 05:11:51;;;;;;;;;;;;;;;7.83;64.91;96272.09;5117101;28;1066;-59
2022/10/29 05:14:17;;;;;;;;;;;;;;;7.88;65.36;96267.28;5132742;27;1905;-59
2022/10/29 05:16:43;;;;;;;;;;;;;;;8.01;65.06;96272.53;5116821;28;1066;-58
2022/10/29 05:19:09;;;;;;;;;;;;;;;8.14;63.38;96275.09;5116960;27;1027;-58
2022/10/29 05:21:35;;;;;;;;;;;;;;;8.01;63.54;96276.03;5115785;28;960;-58
2022/10/29 05:24:01;;;;;;;;;;;;;;;7.91;65.07;96277.72;5116815;28;972;-58
2022/10/29 05:26:29;;;;;;;;;;;;;;;7.96;64.81;96285.34;5116801;28;1050;-58
2022/10/29 05:28:55;;;;;;;;;;;;;;;7.89;65.23;96284.97;5116606;28;1112;-58
2022/10/29 05:31:21;;;;;;;;;;;;;;;7.90;65.35;96288.47;5116311;28;1107;-58
2022/10/29 05:33:47;;;;;;;;;;;;;;;8.12;64.57;96285.00;5116956;28;1930;-58
2022/10/29 05:36:13;;;;;;;;;;;;;;;8.19;64.70;96292.44;5116625;28;992;-58
2022/10/29 05:38:39;;;;;;;;;;;;;;;8.08;65.04;96295.06;5116425;28;1045;-58
2022/10/29 05:41:05;;;;;;;;;;;;;;;8.15;65.22;96288.28;5114968;28;1286;-59
2022/10/29 05:43:31;;;;;;;;;;;;;;;8.26;65.42;96298.13;5116449;28;961;-58
2022/10/29 05:45:57;;;;;;;;;;;;;;;8.35;65.31;96301.91;5116155;28;997;-61
2022/10/29 05:48:23;;;;;;;;;;;;;;;8.63;65.01;96297.09;5115056;28;1115;-58
2022/10/29 05:50:49;;;;;;;;;;;;;;;8.67;63.04;96301.19;5115128;28;1157;-58
2022/10/29 05:53:15;;;;;;;;;;;;;;;8.69;63.86;96297.47;5114900;28;1111;-58
2022/10/29 05:55:41;;;;;;;;;;;;;;;8.98;63.86;96288.94;5116394;28;1986;-58
2022/10/29 05:58:12;;;;;;;;;;;;;;;9.67;62.91;96295.81;5116153;28;1067;-58
2022/10/29 06:00:39;;;;;;;;;;;;;;;10.29;60.89;96308.34;5114848;28;1069;-58
2022/10/29 06:03:12;;;;;;;;;;;;;;;10.52;59.95;96298.38;5116131;28;993;-58
2022/10/29 06:05:39;;;;;;;;;;;;;;;10.75;59.87;96309.75;5116064;28;1043;-58
2022/10/29 06:08:05;;;;;;;;;;;;;;;10.91;59.53;96308.44;5115811;28;1107;-58
2022/10/29 06:14:11;;;;;;;;;;;;;;;11.50;59.05;96309.44;5050513;28;1982;-58
2022/10/29 06:16:37;;;;;;;;;;;;;;;11.83;57.90;96308.19;5055174;28;1161;-58
2022/10/29 06:19:03;;;;;;;;;;;;;;;12.26;56.70;96312.31;5054853;28;1100;-58
2022/10/29 06:21:29;;;;;;;;;;;;;;;12.74;55.58;96313.19;5055010;28;956;-58
2022/10/29 06:23:55;;;;;;;;;;;;;;;14.83;50.45;96335.56;5054846;28;1046;-58
2022/10/29 06:26:21;;;;;;;;;;;;;;;18.23;42.71;96339.75;5054737;28;1046;-58
2022/10/29 06:28:47;;;;;;;;;;;;;;;21.24;37.03;96361.63;5054754;28;1053;-58
2022/10/29 06:31:13;;;;;;;;;;;;;;;24.04;32.55;96377.72;5054545;28;1073;-58
2022/10/29 06:33:39;;;;;;;;;;;;;;;26.53;28.90;96385.31;5054796;28;1057;-59
2022/10/29 06:36:06;;;;;;;;;;;;;;;25.67;29.25;96382.50;5054422;28;1910;-59
2022/10/29 06:38:32;;;;;;;;;;;;;;;24.74;30.83;96377.81;5054529;28;1100;-58
2022/10/29 06:40:58;;;;;;;;;;;;;;;23.18;32.76;96368.63;5054215;28;1320;-58
2022/10/29 06:43:24;;;;;;;;;;;;;;;19.47;38.63;96343.88;5054396;28;1151;-58
2022/10/29 06:45:50;;;;;;;;;;;;;;;16.89;44.39;96323.41;5054397;28;1041;-58
2022/10/29 06:48:16;;;;;;;;;;;;;;;15.49;47.46;96297.31;5054412;28;1054;-58
2022/10/29 06:50:42;;;;;;;;;;;;;;;14.95;49.24;96303.81;5054313;28;1183;-58
2022/10/29 06:53:10;;;;;;;;;;;;;;;14.31;51.33;96305.03;5054226;28;1037;-58
2022/10/29 06:55:36;;;;;;;;;;;;;;;13.88;52.78;96301.28;5053981;28;1954;-59
2022/10/29 06:58:04;;;;;;;;;;;;;;;13.72;53.20;96310.91;5054118;28;1041;-59
2022/10/29 07:00:31;;;;;;;;;;;;;;;13.77;53.44;96308.59;5054196;28;1116;-59
2022/10/29 07:02:57;;;;;;;;;;;;;;;13.91;53.54;96309.06;5054009;28;1041;-59
2022/10/29 07:05:24;;;;;;;;;;;;;;;14.72;51.10;96324.19;5054031;28;1045;-60
2022/10/29 07:07:54;;;;;;;;;;;;;;;15.59;49.33;96325.81;5053975;28;1030;-58
2022/10/29 07:10:20;;;;;;;;;;;;;;;15.72;48.88;96317.22;5053933;28;1097;-58
2022/10/29 07:12:46;;;;;;;;;;;;;;;16.61;46.56;96317.50;5053785;28;1093;-58
2022/10/29 07:15:12;;;;;;;;;;;;;;;16.32;47.23;96323.44;5053917;28;1991;-59
2022/10/29 07:17:38;;;;;;;;;;;;;;;16.27;47.37;96323.09;5054065;28;922;-58
2022/10/29 07:20:06;;;;;;;;;;;;;;;16.73;46.55;96312.59;5053707;28;1041;-58
2022/10/29 07:22:32;;;;;;;;;;;;;;;18.42;43.86;96319.47;5053678;28;1038;-58
2022/10/29 07:24:58;;;;;;;;;;;;;;;20.01;39.63;96331.00;5053629;28;1077;-58
2022/10/29 07:27:26;;;;;;;;;;;;;;;22.49;36.03;96348.00;5036333;28;1045;-58
2022/10/29 07:29:52;;;;;;;;;;;;;;;22.12;35.39;96336.53;5052774;28;1104;-58
2022/10/29 07:32:18;;;;;;;;;;;;;;;20.08;39.80;96330.03;5053804;28;1024;-58
2022/10/29 07:34:44;;;;;;;;;;;;;;;19.02;42.29;96317.78;5053626;28;1918;-58
2022/10/29 07:37:10;;;;;;;;;;;;;;;19.27;41.52;96324.63;5053568;28;1032;-58
2022/10/29 07:39:36;;;;;;;;;;;;;;;20.05;40.71;96318.72;5052688;28;1947;-58
2022/10/29 07:42:02;;;;;;;;;;;;;;;20.84;39.21;96321.38;5053606;28;1017;-58
2022/10/29 07:44:28;;;;;;;;;;;;;;;20.50;39.18;96321.28;5053443;28;1057;-58
2022/10/29 07:46:54;;;;;;;;;;;;;;;21.28;38.24;96321.28;5053325;28;1120;-58
2022/10/29 07:49:20;;;;;;;;;;;;;;;24.15;32.92;96349.72;5053444;28;978;-58
2022/10/29 07:51:47;;;;;;;;;;;;;;;26.39;29.99;96359.13;5041579;28;1191;-58
2022/10/29 07:54:13;;;;;;;;;;;;;;;30.05;25.65;96386.66;5033479;28;1993;-59
2022/10/29 07:56:39;;;;;;;;;;;;;;;32.43;22.78;96391.34;5033648;28;1046;-59
2022/10/29 07:59:07;;;;;;;;;;;;;;;33.42;22.03;96396.88;5033444;28;1048;-59
2022/10/29 08:01:33;;;;;;;;;;;;;;;31.19;23.47;96386.91;5033470;28;1058;-59
2022/10/29 08:03:59;;;;;;;;;;;;;;;29.23;26.02;96366.09;5033360;28;1058;-59
2022/10/29 08:06:25;;;;;;;;;;;;;;;28.14;27.11;96361.53;5033231;28;1033;-59
2022/10/29 08:08:51;;;;;;;;;;;;;;;32.10;23.24;96383.19;5033126;28;1116;-59
2022/10/29 08:11:17;;;;;;;;;;;;;;;34.71;20.16;96384.44;5033239;28;1061;-59
2022/10/29 08:13:43;;;;;;;;;;;;;;;34.08;20.61;96373.81;5033166;28;1231;-59
2022/10/29 08:16:09;;;;;;;;;;;;;;;31.19;23.25;96362.03;5015653;28;1910;-60
2022/10/29 08:18:35;;;;;;;;;;;;;;;28.12;27.04;96336.22;5033036;28;1081;-60
2022/10/29 08:21:02;;;;;;;;;;;;;;;25.19;30.91;96317.44;5033025;28;1034;-58
2022/10/29 08:23:28;;;;;;;;;;;;;;;26.01;29.84;96309.03;5033011;28;1132;-58
2022/10/29 08:25:56;;;;;;;;;;;;;;;26.99;28.46;96322.59;5033301;28;981;-59
2022/10/29 08:28:22;;;;;;;;;;;;;;;26.40;29.06;96317.75;5033248;28;823;-59
2022/10/29 08:30:49;;;;;;;;;;;;;;;24.90;31.66;96295.19;5051956;28;1167;-59
2022/10/29 08:33:15;;;;;;;;;;;;;;;23.62;33.74;96287.06;5073025;28;1055;-59
2022/10/29 08:35:41;;;;;;;;;;;;;;;23.09;34.33;96278.00;5075431;28;1906;-59
2022/10/29 08:38:07;;;;;;;;;;;;;;;23.26;34.57;96272.94;5077225;28;1140;-59
2022/10/29 08:40:42;;;;;;;;;;;;;;;22.26;36.32;96266.66;5064229;28;1307;-59
2022/10/29 08:43:08;;;;;;;;;;;;;;;21.81;36.71;96262.50;5056887;28;986;-58
2022/10/29 08:45:45;;;;;;;;;;;;;;;22.14;36.41;96250.03;5056727;28;1012;-58
2022/10/29 08:48:14;;;;;;;;;;;;;;;21.49;38.17;96247.75;5056855;28;1020;-58
2022/10/29 08:50:43;;;;;;;;;;;;;;;20.77;38.60;96241.69;5056461;28;1135;-58
2022/10/29 08:53:17;;;;;;;;;;;;;;;20.54;39.83;96232.91;5056848;28;1041;-58
2022/10/29 08:55:45;;;;;;;;;;;;;;;22.23;36.94;96240.59;5056467;28;1910;-58
2022/10/29 08:58:18;;;;;;;;;;;;;;;22.31;35.80;96248.63;5056544;28;1092;-58
2022/10/29 09:00:46;;;;;;;;;;;;;;;21.33;38.11;96238.03;5056491;28;970;-58
2022/10/29 09:03:12;;;;;;;;;;;;;;;20.67;39.33;96224.88;5056730;28;992;-59
2022/10/29 09:05:48;;;;;;;;;;;;;;;20.39;40.43;96228.38;5056561;28;1057;-59
2022/10/29 09:08:13;;;;;;;;;;;;;;;20.23;40.32;96234.94;5056601;28;967;-59
2022/10/29 09:10:49;;;;;;;;;;;;;;;20.24;41.07;96222.19;5038549;28;927;-59
2022/10/29 09:13:26;;;;;;;;;;;;;;;20.32;40.65;96221.22;5056156;28;1097;-59
2022/10/29 09:15:52;;;;;;;;;;;;;;;20.45;40.08;96224.91;5056139;28;1910;-59
2022/10/29 09:18:37;;;;;;;;;;;;;;;20.51;40.68;96222.41;5056494;28;1032;-59
2022/10/29 09:21:22;;;;;;;;;;;;;;;20.57;39.54;96217.06;5055900;28;1026;-58
2022/10/29 09:23:59;;;;;;;;;;;;;;;21.17;39.27;96205.72;5056139;28;973;-58
2022/10/29 09:26:30;;;;;;;;;;;;;;;21.48;38.65;96218.03;5056470;28;1122;-59
2022/10/29 09:29:15;;;;;;;;;;;;;;;21.67;38.30;96213.72;5056053;28;1057;-59
2022/10/29 09:31:46;;;;;;;;;;;;;;;21.97;38.26;96209.59;5071813;28;1084;-59
2022/10/29 09:34:16;;;;;;;;;;;;;;;22.31;37.70;96215.09;5076025;28;1913;-59
2022/10/29 09:36:44;;;;;;;;;;;;;;;22.79;37.44;96210.25;5076268;28;1042;-59
2022/10/29 09:39:32;;;;;;;;;;;;;;;23.52;36.03;96213.84;5074795;28;1315;-59
2022/10/29 09:42:00;;;;;;;;;;;;;;;24.43;34.84;96220.03;5056016;28;975;-58
2022/10/29 09:44:34;;;;;;;;;;;;;;;26.14;32.15;96223.03;5055968;28;969;-58
2022/10/29 09:47:00;;;;;;;;;;;;;;;27.81;30.10;96223.69;5054374;28;1109;-59
2022/10/29 09:49:46;;;;;;;;;;;;;;;28.79;28.76;96231.00;5056025;28;1053;-59
2022/10/29 09:52:18;;;;;;;;;;;;;;;29.19;28.06;96218.97;5055007;28;1183;-59
2022/10/29 09:54:44;;;;;;;;;;;;;;;29.28;28.17;96217.47;5055458;28;1914;-59
2022/10/29 09:57:16;;;;;;;;;;;;;;;29.08;28.71;96204.19;5055446;28;1037;-59
2022/10/29 09:59:57;;;;;;;;;;;;;;;28.76;29.11;96210.34;5055477;28;919;-59
2022/10/29 10:02:42;;;;;;;;;;;;;;;28.42;29.34;96201.22;5055468;28;1054;-59
2022/10/29 10:05:11;;;;;;;;;;;;;;;28.18;30.28;96195.00;5055308;28;899;-59
2022/10/29 10:07:37;;;;;;;;;;;;;;;27.74;30.10;96190.03;5055355;28;1001;-59
2022/10/29 10:10:04;;;;;;;;;;;;;;;27.32;30.74;96183.94;5055182;28;1046;-59
2022/10/29 10:12:36;;;;;;;;;;;;;;;26.81;31.28;96180.88;5055170;28;1108;-59
2022/10/29 10:15:22;;;;;;;;;;;;;;;26.13;32.02;96173.97;5055239;28;1906;-59
2022/10/29 10:18:12;;;;;;;;;;;;;;;25.20;33.27;96160.41;5044560;28;1356;-59
2022/10/29 10:20:39;;;;;;;;;;;;;;;24.07;35.62;96145.06;5047007;28;1301;-59
2022/10/29 10:23:35;;;;;;;;;;;;;;;23.27;36.46;96121.78;5054954;28;1053;-59
2022/10/29 10:26:01;;;;;;;;;;;;;;;22.64;37.59;96125.13;5041782;28;1163;-59
2022/10/29 10:28:33;;;;;;;;;;;;;;;22.21;37.82;96117.41;5054867;28;1012;-58
2022/10/29 10:31:07;;;;;;;;;;;;;;;21.95;38.42;96112.81;5053119;28;1072;-59
2022/10/29 10:33:34;;;;;;;;;;;;;;;21.78;38.82;96106.97;5054895;28;973;-59
2022/10/29 10:36:02;;;;;;;;;;;;;;;21.65;38.81;96099.59;5054681;28;1902;-58
2022/10/29 10:38:36;;;;;;;;;;;;;;;21.56;38.86;96090.78;5054749;28;1008;-59
2022/10/29 10:41:05;;;;;;;;;;;;;;;21.52;39.19;96088.69;5054614;28;1360;-59
2022/10/29 10:43:31;;;;;;;;;;;;;;;21.47;39.02;96078.44;5054491;28;1024;-59
2022/10/29 10:45:59;;;;;;;;;;;;;;;21.46;39.43;96082.22;5054540;28;1978;-59
2022/10/29 10:48:26;;;;;;;;;;;;;;;21.37;39.67;96077.97;5054599;28;955;-59
2022/10/29 10:51:08;;;;;;;;;;;;;;;21.32;39.58;96075.03;5054581;28;973;-59
2022/10/29 10:53:34;;;;;;;;;;;;;;;21.28;39.75;96074.59;5038177;28;1140;-58
2022/10/29 10:56:01;;;;;;;;;;;;;;;21.30;39.98;96066.22;5034298;28;1898;-59
2022/10/29 10:58:27;;;;;;;;;;;;;;;21.29;39.63;96064.56;5034105;28;985;-59
2022/10/29 11:00:56;;;;;;;;;;;;;;;21.25;38.92;96069.59;5034541;28;994;-59
2022/10/29 11:03:35;;;;;;;;;;;;;;;21.25;38.63;96064.16;5034321;28;1038;-59
2022/10/29 11:06:18;;;;;;;;;;;;;;;21.24;39.45;96060.56;5016687;28;1085;-59
2022/10/29 11:08:47;;;;;;;;;;;;;;;21.25;38.83;96058.72;5034485;28;1040;-60
2022/10/29 11:11:19;;;;;;;;;;;;;;;21.24;38.63;96055.13;5034262;28;1005;-59
2022/10/29 11:13:46;;;;;;;;;;;;;;;21.29;38.39;96053.69;5034087;28;1159;-59
2022/10/29 11:16:15;;;;;;;;;;;;;;;21.30;38.19;96055.34;5016506;28;1910;-59
2022/10/29 11:18:50;;;;;;;;;;;;;;;21.29;38.59;96043.66;5034031;28;1032;-59
2022/10/29 11:21:27;;;;;;;;;;;;;;;21.24;38.56;96046.97;5034110;28;1041;-59
2022/10/29 11:23:53;;;;;;;;;;;;;;;21.30;37.85;96037.13;5033996;28;1042;-59
2022/10/29 11:26:38;;;;;;;;;;;;;;;21.33;37.87;96034.03;5033775;28;1042;-59
2022/10/29 11:29:13;;;;;;;;;;;;;;;21.32;37.62;96023.34;5033939;28;1001;-59
2022/10/29 11:31:39;;;;;;;;;;;;;;;21.35;38.12;96021.03;5034609;28;1061;-59
2022/10/29 11:34:05;;;;;;;;;;;;;;;21.29;37.73;96011.00;5053539;28;1987;-59
2022/10/29 11:36:37;;;;;;;;;;;;;;;21.36;38.72;96000.13;5053740;28;1032;-59
2022/10/29 11:39:17;;;;;;;;;;;;;;;21.36;37.69;96009.13;5053681;28;1174;-59
2022/10/29 11:41:47;;;;;;;;;;;;;;;21.43;37.10;96000.97;5053563;28;1005;-59
2022/10/29 11:44:14;;;;;;;;;;;;;;;21.41;37.46;95993.00;5053366;28;978;-59
2022/10/29 11:46:47;;;;;;;;;;;;;;;21.37;37.82;95983.59;5053676;28;1017;-59
2022/10/29 11:49:21;;;;;;;;;;;;;;;21.33;38.10;95982.34;5053522;28;1088;-58
2022/10/29 11:52:07;;;;;;;;;;;;;;;21.33;38.30;95981.50;5051915;28;1230;-58
2022/10/29 11:54:52;;;;;;;;;;;;;;;21.20;38.27;95980.44;5033224;28;1906;-58
2022/10/29 11:57:37;;;;;;;;;;;;;;;21.08;36.84;95987.53;5033488;28;1025;-58
2022/10/29 12:00:15;;;;;;;;;;;;;;;21.04;37.54;95976.25;5033479;28;1183;-58
2022/10/29 12:03:00;;;;;;;;;;;;;;;20.99;38.14;95969.75;5033332;28;962;-58
2022/10/29 12:05:26;;;;;;;;;;;;;;;21.03;38.20;95968.28;5033408;28;970;-58
2022/10/29 12:07:52;;;;;;;;;;;;;;;21.15;37.18;95963.94;5033493;28;1006;-58
2022/10/29 12:10:18;;;;;;;;;;;;;;;21.18;37.84;95966.22;5032531;28;983;-58
2022/10/29 12:12:59;;;;;;;;;;;;;;;21.09;38.51;95961.19;5033043;28;1403;-58
2022/10/29 12:15:25;;;;;;;;;;;;;;;21.01;37.77;95964.94;5032993;28;2007;-58
2022/10/29 12:18:05;;;;;;;;;;;;;;;20.91;38.25;95954.47;5033188;28;1001;-57
2022/10/29 12:20:50;;;;;;;;;;;;;;;20.86;37.64;95952.34;5033402;28;979;-58
2022/10/29 12:23:24;;;;;;;;;;;;;;;20.94;37.58;95947.78;5033051;28;1130;-57
2022/10/29 12:26:10;;;;;;;;;;;;;;;20.94;37.98;95947.78;5033027;28;1117;-58
2022/10/29 12:28:43;;;;;;;;;;;;;;;20.93;37.41;95951.56;5015796;28;987;-58
2022/10/29 12:31:25;;;;;;;;;;;;;;;21.03;36.87;95955.53;5047183;28;1136;-58
2022/10/29 12:34:10;;;;;;;;;;;;;;;21.01;37.77;95952.19;5052978;28;1120;-58
2022/10/29 12:36:52;;;;;;;;;;;;;;;20.97;37.43;95941.94;5053139;28;1099;-58
2022/10/29 12:39:24;;;;;;;;;;;;;;;20.90;37.99;95941.91;5052984;28;1253;-58
2022/10/29 12:41:52;;;;;;;;;;;;;;;20.87;37.80;95942.34;5053052;28;1060;-58
2022/10/29 12:44:24;;;;;;;;;;;;;;;20.83;38.04;95932.91;5035130;28;1049;-57
2022/10/29 12:46:53;;;;;;;;;;;;;;;20.85;37.60;95936.28;5052725;28;1152;-57
2022/10/29 12:49:39;;;;;;;;;;;;;;;20.91;37.37;95934.63;5052974;28;1037;-57
2022/10/29 12:52:17;;;;;;;;;;;;;;;20.90;37.09;95925.59;5034930;28;1289;-58
2022/10/29 12:54:49;;;;;;;;;;;;;;;20.85;36.81;95926.25;5032806;28;1927;-58
2022/10/29 12:57:15;;;;;;;;;;;;;;;20.83;36.31;95930.19;5032718;28;990;-58
2022/10/29 12:59:42;;;;;;;;;;;;;;;20.80;36.05;95928.72;5032742;28;1168;-59
2022/10/29 13:02:23;;;;;;;;;;;;;;;20.77;36.33;95915.56;5032965;28;974;-59
2022/10/29 13:05:10;;;;;;;;;;;;;;;20.76;36.31;95913.88;5032806;28;1112;-59
2022/10/29 13:07:37;;;;;;;;;;;;;;;20.73;36.28;95910.75;5032640;28;1109;-59
2022/10/29 13:10:25;;;;;;;;;;;;;;;20.70;36.75;95913.84;5032953;28;1037;-58
2022/10/29 13:12:54;;;;;;;;;;;;;;;20.63;36.10;95914.69;5032757;28;1129;-58
2022/10/29 13:15:22;;;;;;;;;;;;;;;20.65;35.75;95911.78;5032660;28;1906;-58
2022/10/29 13:17:50;;;;;;;;;;;;;;;20.74;35.36;95901.56;5032700;28;1009;-58